Stockham, Nebraska
Current Conditions -  °F | °C
As of 4:35 AM on Saturday 22 Nov 2014 (Local Time) from KAUH Reporting Station
Moderate Fog Moderate Fog  
Wind Chill: 27°   Ceiling: 100
Heat Index: 35°   Visibility: 0.5mi
Dew Point: 35°   Wind: 10mph
Humidity: 100%   Direction: 200°SSW
Pressure: 29.86"   Gusts: NA
Location:  40.8232°N, 98.0482°W
Report Text: KAUH 221035Z AUTO 20009KT 1/2SM FG OVC001 02/02 A2986 RMK AO2 T00170017
Loading
Personal Weather Stations






























Interactive Weather Map New forecast layout! Learn more

10-Day Weather Forecast

Advertisements
Track Severe Weather on mobile